createdAt,value
2019-02-03T00:00:15.116Z,1006.33
2019-02-03T00:01:15.451Z,1006.32
2019-02-03T00:03:15.263Z,1006.36
2019-02-03T00:04:15.293Z,1006.37
2019-02-03T00:05:15.318Z,1006.33
2019-02-03T00:06:15.353Z,1006.33
2019-02-03T00:07:15.333Z,1006.38
2019-02-03T00:08:15.710Z,1006.40
2019-02-03T00:09:15.401Z,1006.41
2019-02-03T00:10:15.422Z,1006.38
2019-02-03T00:11:15.496Z,1006.38
2019-02-03T00:12:15.484Z,1006.42
2019-02-03T00:13:15.558Z,1006.42
2019-02-03T00:14:15.540Z,1006.40
2019-02-03T00:15:15.870Z,1006.41
2019-02-03T00:16:15.653Z,1006.41
2019-02-03T00:18:15.712Z,1006.46
2019-02-03T00:19:15.744Z,1006.40
2019-02-03T00:21:15.798Z,1006.40
2019-02-03T00:23:16.119Z,1006.43
2019-02-03T00:24:15.890Z,1006.39
2019-02-03T00:25:15.865Z,1006.42
2019-02-03T00:26:17.822Z,1006.47
2019-02-03T00:27:15.924Z,1006.46
2019-02-03T00:28:15.964Z,1006.48
2019-02-03T00:29:16.042Z,1006.51
2019-02-03T00:30:16.324Z,1006.52
2019-02-03T00:31:16.103Z,1006.56
2019-02-03T00:32:16.082Z,1006.54
2019-02-03T00:33:16.158Z,1006.56
2019-02-03T00:34:16.142Z,1006.60
2019-02-03T00:35:16.275Z,1006.60
2019-02-03T00:36:16.199Z,1006.62
2019-02-03T00:37:18.077Z,1006.69
2019-02-03T00:38:21.457Z,1006.69
2019-02-03T00:39:16.290Z,1006.70
2019-02-03T00:40:16.411Z,1006.74
2019-02-03T00:41:16.386Z,1006.77
2019-02-03T00:42:16.377Z,1006.83
2019-02-03T00:43:16.457Z,1006.82
2019-02-03T00:44:18.641Z,1006.81
2019-02-03T00:45:16.522Z,1006.81
2019-02-03T00:46:16.507Z,1006.82
2019-02-03T00:47:16.532Z,1006.83
2019-02-03T00:48:16.615Z,1006.80
2019-02-03T00:49:16.584Z,1006.84
2019-02-03T00:50:16.622Z,1006.83
2019-02-03T00:51:16.953Z,1006.85
2019-02-03T00:52:16.675Z,1006.85
2019-02-03T00:53:16.706Z,1006.87
2019-02-03T00:54:16.791Z,1006.90
2019-02-03T00:55:16.818Z,1006.93
2019-02-03T00:56:16.800Z,1006.92
2019-02-03T00:57:16.828Z,1006.96
2019-02-03T00:58:17.205Z,1006.96
2019-02-03T00:59:16.936Z,1006.97
2019-02-03T01:00:16.989Z,1006.99
2019-02-03T01:01:17.005Z,1007.02
2019-02-03T01:02:16.974Z,1007.03
2019-02-03T01:03:17.005Z,1007.04
2019-02-03T01:04:17.042Z,1007.02
2019-02-03T01:05:17.370Z,1007.05
2019-02-03T01:06:17.151Z,1007.05
2019-02-03T01:07:27.231Z,1007.04
2019-02-03T01:08:17.216Z,1007.11
2019-02-03T01:09:17.191Z,1007.15
2019-02-03T01:10:17.272Z,1007.21
2019-02-03T01:11:17.298Z,1007.28
2019-02-03T01:12:17.629Z,1007.33
2019-02-03T01:13:17.307Z,1007.29
2019-02-03T01:14:17.339Z,1007.30
2019-02-03T01:15:17.417Z,1007.31
2019-02-03T01:16:17.409Z,1007.31
2019-02-03T01:17:17.480Z,1007.33
2019-02-03T01:18:17.509Z,1007.36
2019-02-03T01:19:17.789Z,1007.38
2019-02-03T01:20:17.521Z,1007.36
2019-02-03T01:21:17.592Z,1007.36
2019-02-03T01:22:17.590Z,1007.42
2019-02-03T01:23:17.660Z,1007.42
2019-02-03T01:24:17.633Z,1007.38
2019-02-03T01:25:17.669Z,1007.39
2019-02-03T01:30:17.868Z,1007.50
2019-02-03T01:32:17.932Z,1007.54
2019-02-03T01:33:17.953Z,1007.50
2019-02-03T01:34:17.937Z,1007.56
2019-02-03T01:35:18.317Z,1007.60
2019-02-03T01:36:17.998Z,1007.60
2019-02-03T01:37:18.134Z,1007.63
2019-02-03T01:38:18.206Z,1007.68
2019-02-03T01:39:18.141Z,1007.68
2019-02-03T01:40:18.133Z,1007.72
2019-02-03T01:41:18.192Z,1007.72
2019-02-03T01:42:18.488Z,1007.74
2019-02-03T01:43:18.262Z,1007.73
2019-02-03T01:44:18.417Z,1007.73
2019-02-03T01:45:18.362Z,1007.76
2019-02-03T01:46:18.351Z,1007.76
2019-02-03T01:47:18.385Z,1007.76
2019-02-03T01:49:18.438Z,1007.84
2019-02-03T01:50:18.718Z,1007.87
2019-02-03T01:51:18.497Z,1007.89
2019-02-03T01:52:18.479Z,1007.93
2019-02-03T01:53:18.502Z,1007.97
2019-02-03T01:54:18.582Z,1007.98
2019-02-03T01:55:18.617Z,1008.00
2019-02-03T01:56:18.700Z,1008.02
2019-02-03T01:57:19.050Z,1008.03
2019-02-03T01:58:18.707Z,1007.98
2019-02-03T01:59:18.730Z,1008.04
2019-02-03T02:00:18.713Z,1008.06
2019-02-03T02:01:18.795Z,1008.11
2019-02-03T02:02:18.776Z,1008.11
2019-02-03T02:03:18.805Z,1008.14
2019-02-03T02:04:19.131Z,1008.14
2019-02-03T02:05:18.861Z,1008.17
2019-02-03T02:06:18.944Z,1008.19
2019-02-03T02:07:18.928Z,1008.17
2019-02-03T02:08:18.963Z,1008.14
2019-02-03T02:09:19.030Z,1008.13
2019-02-03T02:10:19.016Z,1008.18
2019-02-03T02:11:19.340Z,1008.20
2019-02-03T02:12:19.126Z,1008.17
2019-02-03T02:13:19.150Z,1008.19
2019-02-03T02:14:19.133Z,1008.20
2019-02-03T02:15:19.208Z,1008.20
2019-02-03T02:16:19.196Z,1008.22
2019-02-03T02:17:19.276Z,1008.24
2019-02-03T02:18:19.600Z,1008.19
2019-02-03T02:19:19.292Z,1008.20
2019-02-03T02:20:19.364Z,1008.26
2019-02-03T02:21:19.394Z,1008.21
2019-02-03T02:22:19.373Z,1008.27
2019-02-03T02:23:19.448Z,1008.25
2019-02-03T02:24:19.440Z,1008.33
2019-02-03T02:25:19.759Z,1008.32
2019-02-03T02:26:19.545Z,1008.36
2019-02-03T02:27:19.567Z,1008.42
2019-02-03T02:28:19.664Z,1008.44
2019-02-03T02:29:19.577Z,1008.41
2019-02-03T02:30:19.612Z,1008.46
2019-02-03T02:31:19.636Z,1008.47
2019-02-03T02:32:19.975Z,1008.46
2019-02-03T02:33:19.754Z,1008.45
2019-02-03T02:34:19.734Z,1008.44
2019-02-03T02:35:19.822Z,1008.44
2019-02-03T02:36:19.794Z,1008.47
2019-02-03T02:37:19.871Z,1008.46
2019-02-03T02:38:19.859Z,1008.44
2019-02-03T02:39:20.181Z,1008.45
2019-02-03T02:40:19.967Z,1008.41
2019-02-03T02:41:19.941Z,1008.37
2019-02-03T02:42:20.026Z,1008.44
2019-02-03T02:43:20.047Z,1008.41
2019-02-03T02:44:20.029Z,1008.45
2019-02-03T02:45:20.059Z,1008.39
2019-02-03T02:46:20.386Z,1008.42
2019-02-03T02:47:20.119Z,1008.41
2019-02-03T02:49:20.220Z,1008.46
2019-02-03T02:50:20.209Z,1008.45
2019-02-03T02:51:20.294Z,1008.49
2019-02-03T02:52:20.312Z,1008.49
2019-02-03T02:53:20.594Z,1008.49
2019-02-03T02:54:20.328Z,1008.52
2019-02-03T02:55:20.432Z,1008.49
2019-02-03T02:56:20.390Z,1008.50
2019-02-03T02:57:20.466Z,1008.52
2019-02-03T02:58:20.441Z,1008.49
2019-02-03T02:59:20.476Z,1008.53
2019-02-03T03:00:20.853Z,1008.55
2019-02-03T03:01:20.533Z,1008.52
2019-02-03T03:02:20.708Z,1008.59
2019-02-03T03:03:20.597Z,1008.54
2019-02-03T03:04:20.620Z,1008.55
2019-02-03T03:05:20.704Z,1008.57
2019-02-03T03:06:20.685Z,1008.60
2019-02-03T03:07:21.013Z,1008.60
2019-02-03T03:08:20.756Z,1008.63
2019-02-03T03:09:20.782Z,1008.67
2019-02-03T03:10:20.854Z,1008.63
2019-02-03T03:11:20.882Z,1008.67
2019-02-03T03:12:20.917Z,1008.71
2019-02-03T03:13:20.944Z,1008.69
2019-02-03T03:14:21.222Z,1008.72
2019-02-03T03:15:20.945Z,1008.70
2019-02-03T03:16:21.037Z,1008.76
2019-02-03T03:17:21.059Z,1008.74
2019-02-03T03:18:21.092Z,1008.73
2019-02-03T03:19:21.075Z,1008.72
2019-02-03T03:20:21.404Z,1008.70
2019-02-03T03:21:21.212Z,1008.70
2019-02-03T03:22:21.159Z,1008.72
2019-02-03T03:23:21.247Z,1008.70
2019-02-03T03:24:21.224Z,1008.69
2019-02-03T03:25:21.295Z,1008.72
2019-02-03T03:26:21.642Z,1008.70
2019-02-03T03:27:21.367Z,1008.68
2019-02-03T03:28:21.349Z,1008.73
2019-02-03T03:29:21.422Z,1008.72
2019-02-03T03:30:21.413Z,1008.70
2019-02-03T03:31:21.481Z,1008.71
2019-02-03T03:32:21.755Z,1008.71
2019-02-03T03:33:21.512Z,1008.68
2019-02-03T03:34:21.569Z,1008.72
2019-02-03T03:35:21.561Z,1008.75
2019-02-03T03:36:21.638Z,1008.73
2019-02-03T03:37:21.609Z,1008.72
2019-02-03T03:38:31.866Z,1008.69
2019-02-03T03:40:21.740Z,1008.74
2019-02-03T03:41:21.778Z,1008.75
2019-02-03T03:42:21.753Z,1008.76
2019-02-03T03:43:21.780Z,1008.81
2019-02-03T03:44:21.863Z,1008.82
2019-02-03T03:45:22.190Z,1008.80
2019-02-03T03:46:21.921Z,1008.90
2019-02-03T03:47:21.954Z,1008.91
2019-02-03T03:48:21.938Z,1008.98
2019-02-03T03:49:21.963Z,1009.02
2019-02-03T03:50:22.043Z,1009.04
2019-02-03T03:51:22.070Z,1009.04
2019-02-03T03:52:22.402Z,1009.02
2019-02-03T03:53:22.078Z,1009.00
2019-02-03T03:54:22.106Z,1009.00
2019-02-03T03:55:22.191Z,1008.98
2019-02-03T03:56:22.172Z,1008.97
2019-02-03T03:57:22.256Z,1009.01
2019-02-03T03:58:22.279Z,1009.00
2019-02-03T03:59:22.555Z,1008.99
2019-02-03T04:00:22.475Z,1008.96
2019-02-03T04:01:22.413Z,1008.98
2019-02-03T04:02:22.345Z,1008.95
2019-02-03T04:03:22.423Z,1008.91
2019-02-03T04:04:22.409Z,1008.94
2019-02-03T04:05:22.507Z,1008.94
2019-02-03T04:07:22.792Z,1008.94
2019-02-03T04:08:22.577Z,1008.91
2019-02-03T04:09:22.604Z,1008.96
2019-02-03T04:10:22.584Z,1008.98
2019-02-03T04:11:22.675Z,1009.08
2019-02-03T04:12:22.641Z,1009.06
2019-02-03T04:13:22.719Z,1009.11
2019-02-03T04:14:23.005Z,1009.15
2019-02-03T04:15:22.737Z,1009.24
2019-02-03T04:16:22.809Z,1009.26
2019-02-03T04:17:22.843Z,1009.31
2019-02-03T04:18:22.821Z,1009.32
2019-02-03T04:19:22.905Z,1009.36
2019-02-03T04:20:22.878Z,1009.43
2019-02-03T04:21:23.207Z,1009.52
2019-02-03T04:22:22.945Z,1009.60
2019-02-03T04:23:22.979Z,1009.64
2019-02-03T04:24:23.058Z,1009.70
2019-02-03T04:25:23.025Z,1009.77
2019-02-03T04:26:23.106Z,1009.80
2019-02-03T04:27:23.139Z,1009.84
2019-02-03T04:28:23.417Z,1009.81
2019-02-03T04:29:23.155Z,1009.81
2019-02-03T04:30:23.230Z,1009.87
2019-02-03T04:31:23.213Z,1009.98
2019-02-03T04:32:23.245Z,1010.06
2019-02-03T04:33:23.269Z,1010.11
2019-02-03T04:34:23.302Z,1010.16
2019-02-03T04:35:23.631Z,1010.20
2019-02-03T04:36:23.383Z,1010.16
2019-02-03T04:37:23.434Z,1010.21
2019-02-03T04:38:23.412Z,1010.31
2019-02-03T04:39:23.492Z,1010.33
2019-02-03T04:40:23.477Z,1010.37
2019-02-03T04:41:23.563Z,1010.42
2019-02-03T04:42:23.831Z,1010.42
2019-02-03T04:43:23.621Z,1010.40
2019-02-03T04:45:23.625Z,1010.46
2019-02-03T04:46:23.699Z,1010.52
2019-02-03T04:47:23.688Z,1010.51
2019-02-03T04:48:23.780Z,1010.53
2019-02-03T04:49:24.096Z,1010.58
2019-02-03T04:50:23.829Z,1010.65
2019-02-03T04:51:23.854Z,1010.72
2019-02-03T04:52:23.829Z,1010.75
2019-02-03T04:53:23.858Z,1010.76
2019-02-03T04:54:23.941Z,1010.78
2019-02-03T04:55:23.967Z,1010.78
2019-02-03T04:56:24.275Z,1010.79
2019-02-03T04:57:23.982Z,1010.77
2019-02-03T04:58:24.013Z,1010.83
2019-02-03T04:59:24.042Z,1010.80
2019-02-03T05:00:24.127Z,1010.81
2019-02-03T05:01:24.165Z,1010.78
2019-02-03T05:02:24.125Z,1010.81
2019-02-03T05:03:24.459Z,1010.82
2019-02-03T05:04:24.193Z,1010.83
2019-02-03T05:05:24.270Z,1010.82
2019-02-03T05:06:24.346Z,1010.87
2019-02-03T05:07:24.333Z,1010.87
2019-02-03T05:08:24.310Z,1010.95
2019-02-03T05:09:24.439Z,1011.02
2019-02-03T05:10:24.677Z,1011.06
2019-02-03T05:11:24.453Z,1011.08
2019-02-03T05:12:24.435Z,1011.12
2019-02-03T05:13:24.508Z,1011.09
2019-02-03T05:14:24.495Z,1011.11
2019-02-03T05:15:24.512Z,1011.16
2019-02-03T05:16:24.902Z,1011.17
2019-02-03T05:17:24.574Z,1011.14
2019-02-03T05:18:24.603Z,1011.20
2019-02-03T05:19:24.646Z,1011.17
2019-02-03T05:20:24.666Z,1011.15
2019-02-03T05:21:24.746Z,1011.23
2019-02-03T05:22:25.027Z,1011.21
2019-02-03T05:23:24.752Z,1011.28
2019-02-03T05:24:24.781Z,1011.27
2019-02-03T05:25:24.861Z,1011.31
2019-02-03T05:26:24.841Z,1011.33
2019-02-03T05:27:24.874Z,1011.32
2019-02-03T05:28:25.259Z,1011.32
2019-02-03T05:29:24.986Z,1011.35
2019-02-03T05:31:24.990Z,1011.30
2019-02-03T05:32:25.075Z,1011.33
2019-02-03T05:33:25.055Z,1011.41
2019-02-03T05:34:25.137Z,1011.41
2019-02-03T05:35:25.411Z,1011.43
2019-02-03T05:36:25.188Z,1011.42
2019-02-03T05:37:25.172Z,1011.46
2019-02-03T05:38:25.202Z,1011.46
2019-02-03T05:39:25.703Z,1011.47
2019-02-03T05:40:25.308Z,1011.45
2019-02-03T05:41:25.336Z,1011.48
2019-02-03T05:42:25.621Z,1011.50
2019-02-03T05:43:25.452Z,1011.48
2019-02-03T05:44:25.433Z,1011.43
2019-02-03T05:45:25.407Z,1011.44
2019-02-03T05:46:25.442Z,1011.49
2019-02-03T05:47:25.483Z,1011.49
2019-02-03T05:48:25.500Z,1011.49
2019-02-03T05:49:25.824Z,1011.47
2019-02-03T05:50:25.862Z,1011.51
2019-02-03T05:51:25.642Z,1011.47
2019-02-03T05:52:25.676Z,1011.46
2019-02-03T05:53:25.655Z,1011.50
2019-02-03T05:54:25.782Z,1011.54
2019-02-03T05:55:25.758Z,1011.54
2019-02-03T05:56:26.042Z,1011.52
2019-02-03T05:57:25.771Z,1011.49
2019-02-03T05:58:25.799Z,1011.55
2019-02-03T05:59:25.873Z,1011.49
2019-02-03T06:00:25.914Z,1011.48
2019-02-03T06:01:25.937Z,1011.45
2019-02-03T06:02:25.927Z,1011.49
2019-02-03T06:03:26.302Z,1011.54
2019-02-03T06:05:26.157Z,1011.57
2019-02-03T06:06:26.043Z,1011.54
2019-02-03T06:07:26.122Z,1011.56
2019-02-03T06:09:36.409Z,1011.55
2019-02-03T06:10:26.205Z,1011.59
2019-02-03T06:11:26.234Z,1011.56
2019-02-03T06:12:26.221Z,1011.57
2019-02-03T06:14:26.429Z,1011.60
2019-02-03T06:15:26.359Z,1011.71
2019-02-03T06:16:26.701Z,1011.68
2019-02-03T06:17:26.359Z,1011.70
2019-02-03T06:18:26.392Z,1011.75
2019-02-03T06:19:26.475Z,1011.76
2019-02-03T06:20:26.470Z,1011.75
2019-02-03T06:21:26.481Z,1011.78
2019-02-03T06:22:26.575Z,1011.79
2019-02-03T06:23:26.851Z,1011.84
2019-02-03T06:24:26.620Z,1011.90
2019-02-03T06:25:26.718Z,1011.91
2019-02-03T06:27:26.711Z,1011.94
2019-02-03T06:28:26.797Z,1011.91
2019-02-03T06:29:26.776Z,1011.90
2019-02-03T06:30:27.068Z,1011.88
2019-02-03T06:31:26.786Z,1011.94
2019-02-03T06:32:26.860Z,1011.92
2019-02-03T06:33:26.992Z,1011.90
2019-02-03T06:35:26.967Z,1011.94
2019-02-03T06:36:27.314Z,1011.90
2019-02-03T06:37:26.975Z,1011.89
2019-02-03T06:38:27.042Z,1011.93
2019-02-03T06:39:27.021Z,1011.99
2019-02-03T06:40:27.106Z,1011.95
2019-02-03T06:41:27.138Z,1011.97
2019-02-03T06:42:27.463Z,1011.99
2019-02-03T06:44:27.225Z,1011.93
2019-02-03T06:45:27.253Z,1011.95
2019-02-03T06:46:27.223Z,1011.97
2019-02-03T06:47:27.314Z,1011.95
2019-02-03T06:48:27.638Z,1012.00
2019-02-03T06:49:27.366Z,1012.03
2019-02-03T06:50:27.356Z,1011.97
2019-02-03T06:51:27.502Z,1011.99
2019-02-03T06:52:27.463Z,1012.02
2019-02-03T06:53:27.437Z,1012.02
2019-02-03T06:54:27.513Z,1012.04
2019-02-03T06:55:27.849Z,1012.04
2019-02-03T06:56:27.752Z,1012.01
2019-02-03T06:57:27.607Z,1012.04
2019-02-03T06:58:27.588Z,1012.08
2019-02-03T06:59:27.617Z,1012.09
2019-02-03T07:00:27.693Z,1012.07
2019-02-03T07:01:27.801Z,1012.06
2019-02-03T07:02:28.010Z,1012.06
2019-02-03T07:03:27.731Z,1012.11
2019-02-03T07:04:27.815Z,1012.08
2019-02-03T07:05:27.857Z,1012.11
2019-02-03T07:06:27.926Z,1012.14
2019-02-03T07:07:27.900Z,1012.15
2019-02-03T07:09:27.921Z,1012.17
2019-02-03T07:10:28.291Z,1012.18
2019-02-03T07:11:28.016Z,1012.19
2019-02-03T07:12:28.053Z,1012.17
2019-02-03T07:13:28.034Z,1012.17
2019-02-03T07:14:28.068Z,1012.18
2019-02-03T07:15:28.157Z,1012.14
2019-02-03T07:16:40.150Z,1012.14
2019-02-03T07:17:28.501Z,1012.18
2019-02-03T07:18:28.196Z,1012.20
2019-02-03T07:19:28.205Z,1012.28
2019-02-03T07:20:28.288Z,1012.31
2019-02-03T07:22:28.363Z,1012.36
2019-02-03T07:23:28.379Z,1012.36
2019-02-03T07:24:28.655Z,1012.41
2019-02-03T07:25:28.437Z,1012.45
2019-02-03T07:26:28.421Z,1012.43
2019-02-03T07:27:28.557Z,1012.43
2019-02-03T07:28:28.476Z,1012.46
2019-02-03T07:29:28.552Z,1012.44
2019-02-03T07:30:28.585Z,1012.43
2019-02-03T07:31:28.931Z,1012.40
2019-02-03T07:32:28.596Z,1012.41
2019-02-03T07:33:28.627Z,1012.49
2019-02-03T07:34:28.708Z,1012.49
2019-02-03T07:35:28.732Z,1012.51
2019-02-03T07:36:28.809Z,1012.52
2019-02-03T07:37:28.747Z,1012.59
2019-02-03T07:38:29.069Z,1012.61
2019-02-03T07:39:28.805Z,1012.60
2019-02-03T07:40:28.897Z,1012.66
2019-02-03T07:41:28.921Z,1012.68
2019-02-03T07:42:28.938Z,1012.66
2019-02-03T07:43:28.968Z,1012.71
2019-02-03T07:44:28.950Z,1012.71
2019-02-03T07:45:29.278Z,1012.74
2019-02-03T07:46:29.016Z,1012.76
2019-02-03T07:47:29.037Z,1012.80
2019-02-03T07:48:29.122Z,1012.78
2019-02-03T07:49:29.800Z,1012.83
2019-02-03T07:51:29.204Z,1012.84
2019-02-03T07:52:29.539Z,1012.87
2019-02-03T07:53:29.267Z,1012.84
2019-02-03T07:54:29.258Z,1012.88
2019-02-03T07:55:29.324Z,1012.88
2019-02-03T07:56:29.360Z,1012.88
2019-02-03T07:57:29.382Z,1012.87
2019-02-03T07:58:29.365Z,1012.92
2019-02-03T07:59:29.718Z,1012.90
2019-02-03T08:00:29.426Z,1012.90
2019-02-03T08:01:29.500Z,1012.89
2019-02-03T08:02:29.484Z,1012.97
2019-02-03T08:03:29.562Z,1012.98
2019-02-03T08:04:29.597Z,1013.01
2019-02-03T08:05:29.638Z,1013.02
2019-02-03T08:06:29.911Z,1013.01
2019-02-03T08:07:29.636Z,1013.05
2019-02-03T08:08:29.716Z,1013.10
2019-02-03T08:09:29.735Z,1013.08
2019-02-03T08:10:29.897Z,1013.14
2019-02-03T08:11:29.748Z,1013.12
2019-02-03T08:13:29.811Z,1013.21
2019-02-03T08:14:30.143Z,1013.23
2019-02-03T08:15:29.920Z,1013.28
2019-02-03T08:16:29.906Z,1013.23
2019-02-03T08:17:29.928Z,1013.30
2019-02-03T08:18:30.065Z,1013.35
2019-02-03T08:19:29.989Z,1013.34
2019-02-03T08:21:30.067Z,1013.38
2019-02-03T08:22:30.377Z,1013.41
2019-02-03T08:23:30.156Z,1013.38
2019-02-03T08:24:30.146Z,1013.36
2019-02-03T08:25:30.187Z,1013.34
2019-02-03T08:26:30.197Z,1013.41
2019-02-03T08:27:30.229Z,1013.36
2019-02-03T08:28:30.304Z,1013.45
2019-02-03T08:29:30.586Z,1013.40
2019-02-03T08:30:30.495Z,1013.47
2019-02-03T08:31:30.394Z,1013.45
2019-02-03T08:32:30.375Z,1013.43
2019-02-03T08:33:30.404Z,1013.46
2019-02-03T08:34:30.431Z,1013.49
2019-02-03T08:35:30.515Z,1013.51
2019-02-03T08:36:30.792Z,1013.53
2019-02-03T08:37:30.566Z,1013.56
2019-02-03T08:38:30.548Z,1013.57
2019-02-03T08:40:37.018Z,1013.59
2019-02-03T08:41:30.726Z,1013.57
2019-02-03T08:42:30.716Z,1013.60
2019-02-03T08:43:31.302Z,1013.57
2019-02-03T08:44:30.778Z,1013.61
2019-02-03T08:45:30.811Z,1013.65
2019-02-03T08:46:30.883Z,1013.63
2019-02-03T08:47:30.875Z,1013.66
2019-02-03T08:48:30.923Z,1013.69
2019-02-03T08:49:30.922Z,1013.71
2019-02-03T08:50:31.303Z,1013.70
2019-02-03T08:51:32.341Z,1013.73
2019-02-03T08:52:30.973Z,1013.75
2019-02-03T08:53:31.042Z,1013.82
2019-02-03T08:54:31.021Z,1013.77
2019-02-03T08:55:31.150Z,1013.76
2019-02-03T08:56:31.090Z,1013.81
2019-02-03T08:57:31.571Z,1013.79
2019-02-03T08:58:31.194Z,1013.82
2019-02-03T09:00:31.298Z,1013.90
2019-02-03T09:01:31.336Z,1013.86
2019-02-03T09:02:31.327Z,1013.90
2019-02-03T09:03:31.784Z,1013.92
2019-02-03T09:04:31.624Z,1013.98
2019-02-03T09:05:31.415Z,1013.98
2019-02-03T09:07:31.636Z,1014.04
2019-02-03T09:08:31.490Z,1014.04
2019-02-03T09:10:31.663Z,1014.08
2019-02-03T09:11:31.893Z,1014.07
2019-02-03T09:12:31.605Z,1014.11
2019-02-03T09:13:31.593Z,1014.11
2019-02-03T09:14:31.665Z,1014.14
2019-02-03T09:15:31.694Z,1014.13
2019-02-03T09:16:31.769Z,1014.15
2019-02-03T09:17:32.017Z,1014.10
2019-02-03T09:18:34.981Z,1014.12
2019-02-03T09:19:32.150Z,1014.15
2019-02-03T09:20:31.819Z,1014.15
2019-02-03T09:22:31.904Z,1014.20
2019-02-03T09:23:31.945Z,1014.22
2019-02-03T09:25:32.078Z,1014.20
2019-02-03T09:26:32.270Z,1014.24
2019-02-03T09:27:32.234Z,1014.23
2019-02-03T09:28:32.234Z,1014.26
2019-02-03T09:29:32.465Z,1014.30
2019-02-03T09:30:32.094Z,1014.29
2019-02-03T09:31:32.180Z,1014.31
2019-02-03T09:33:32.227Z,1014.31
2019-02-03T09:36:32.273Z,1014.41
2019-02-03T09:37:32.301Z,1014.42
2019-02-03T09:38:32.382Z,1014.45
2019-02-03T09:39:32.486Z,1014.42
2019-02-03T09:40:32.497Z,1014.45
2019-02-03T09:41:32.476Z,1014.44
2019-02-03T09:42:33.076Z,1014.46
2019-02-03T09:43:32.814Z,1014.53
2019-02-03T09:44:32.575Z,1014.53
2019-02-03T09:45:33.504Z,1014.54
2019-02-03T09:47:33.013Z,1014.54
2019-02-03T09:48:32.720Z,1014.54
2019-02-03T09:49:33.120Z,1014.55
2019-02-03T09:50:32.749Z,1014.53
2019-02-03T09:51:32.779Z,1014.48
2019-02-03T09:54:32.925Z,1014.60
2019-02-03T09:55:32.899Z,1014.67
2019-02-03T09:56:33.232Z,1014.69
2019-02-03T09:57:32.986Z,1014.67
2019-02-03T09:58:34.796Z,1014.76
2019-02-03T09:59:33.009Z,1014.75
2019-02-03T10:01:33.078Z,1014.79
2019-02-03T10:03:33.401Z,1014.82
2019-02-03T10:05:33.489Z,1014.82
2019-02-03T10:06:35.321Z,1014.85
2019-02-03T10:07:33.256Z,1014.81
2019-02-03T10:08:40.337Z,1014.86
2019-02-03T10:09:33.275Z,1014.87
2019-02-03T10:10:34.015Z,1014.89
2019-02-03T10:11:33.374Z,1014.94
2019-02-03T10:12:33.412Z,1014.93
2019-02-03T10:13:33.427Z,1014.93
2019-02-03T10:14:33.810Z,1014.93
2019-02-03T10:15:33.757Z,1014.93
2019-02-03T10:16:33.763Z,1014.97
2019-02-03T10:18:33.526Z,1015.02
2019-02-03T10:19:33.742Z,1015.03
2019-02-03T10:21:33.678Z,1015.10
2019-02-03T10:22:33.757Z,1015.13
2019-02-03T10:23:33.799Z,1015.12
2019-02-03T10:24:42.049Z,1015.17
2019-02-03T10:25:33.805Z,1015.15
2019-02-03T10:26:33.821Z,1015.17
2019-02-03T10:28:34.585Z,1015.20
2019-02-03T10:29:33.913Z,1015.20
2019-02-03T10:30:33.940Z,1015.24
2019-02-03T10:31:34.270Z,1015.28
2019-02-03T10:32:33.956Z,1015.31
2019-02-03T10:33:34.027Z,1015.34
2019-02-03T10:35:34.102Z,1015.28
2019-02-03T10:36:34.114Z,1015.29
2019-02-03T10:37:34.142Z,1015.33
2019-02-03T10:38:34.437Z,1015.30
2019-02-03T10:39:34.306Z,1015.36
2019-02-03T10:40:34.197Z,1015.38
2019-02-03T10:41:34.262Z,1015.37
2019-02-03T10:42:34.567Z,1015.39
2019-02-03T10:43:34.435Z,1015.41
2019-02-03T10:44:34.479Z,1015.39
2019-02-03T10:45:34.695Z,1015.41
2019-02-03T10:46:34.419Z,1015.42
2019-02-03T10:47:34.474Z,1015.44
2019-02-03T10:48:34.472Z,1015.45
2019-02-03T10:49:34.479Z,1015.44
2019-02-03T10:51:34.648Z,1015.46
2019-02-03T10:52:34.906Z,1015.49
2019-02-03T10:53:34.640Z,1015.54
2019-02-03T10:54:34.641Z,1015.51
2019-02-03T10:55:34.689Z,1015.51
2019-02-03T10:56:34.721Z,1015.52
2019-02-03T10:57:34.750Z,1015.53
2019-02-03T10:58:34.855Z,1015.56
2019-02-03T10:59:35.064Z,1015.52
2019-02-03T11:00:34.800Z,1015.54
2019-02-03T11:01:34.868Z,1015.59
2019-02-03T11:02:35.633Z,1015.57
2019-02-03T11:04:34.932Z,1015.59
2019-02-03T11:05:34.943Z,1015.61
2019-02-03T11:06:35.314Z,1015.63
2019-02-03T11:07:35.366Z,1015.67
2019-02-03T11:08:35.905Z,1015.64
2019-02-03T11:10:35.139Z,1015.69
2019-02-03T11:11:36.725Z,1015.67
2019-02-03T11:12:35.483Z,1015.69
2019-02-03T11:13:35.241Z,1015.74
2019-02-03T11:14:35.260Z,1015.76
2019-02-03T11:15:35.291Z,1015.76
2019-02-03T11:16:35.330Z,1015.79
2019-02-03T11:17:35.364Z,1015.78
2019-02-03T11:18:35.680Z,1015.82
2019-02-03T11:19:35.417Z,1015.86
2019-02-03T11:20:35.455Z,1015.82
2019-02-03T11:22:35.813Z,1015.86
2019-02-03T11:23:35.620Z,1015.85
2019-02-03T11:24:35.939Z,1015.88
2019-02-03T11:25:35.670Z,1015.89
2019-02-03T11:26:35.760Z,1015.87
2019-02-03T11:28:35.744Z,1015.95
2019-02-03T11:29:35.738Z,1015.91
2019-02-03T11:30:35.746Z,1015.88
2019-02-03T11:31:36.415Z,1015.95
2019-02-03T11:32:35.893Z,1015.92
2019-02-03T11:35:35.896Z,1015.97
2019-02-03T11:36:35.938Z,1015.93
2019-02-03T11:37:35.952Z,1015.94
2019-02-03T11:38:36.294Z,1016.00
2019-02-03T11:39:36.041Z,1015.97
2019-02-03T11:40:36.129Z,1016.00
2019-02-03T11:42:36.133Z,1016.05
2019-02-03T11:43:36.148Z,1016.03
2019-02-03T11:44:36.182Z,1016.07
2019-02-03T11:45:36.511Z,1016.05
2019-02-03T11:46:36.180Z,1016.09
2019-02-03T11:47:36.258Z,1016.10
2019-02-03T11:50:36.349Z,1016.12
2019-02-03T11:51:36.425Z,1016.15
2019-02-03T11:53:37.124Z,1016.20
2019-02-03T11:54:36.417Z,1016.21
2019-02-03T11:55:36.514Z,1016.23
2019-02-03T11:56:36.496Z,1016.22
2019-02-03T11:58:36.591Z,1016.25
2019-02-03T11:59:36.625Z,1016.27
2019-02-03T12:00:37.005Z,1016.28
2019-02-03T12:02:41.937Z,1016.27
2019-02-03T12:03:36.885Z,1016.29
2019-02-03T12:04:36.775Z,1016.29
2019-02-03T12:05:36.840Z,1016.31
2019-02-03T12:06:37.767Z,1016.32
2019-02-03T12:07:37.240Z,1016.34
2019-02-03T12:09:37.075Z,1016.39
2019-02-03T12:10:37.635Z,1016.40
2019-02-03T12:12:37.840Z,1016.45
2019-02-03T12:13:37.622Z,1016.38
2019-02-03T12:14:37.396Z,1016.39
2019-02-03T12:15:37.344Z,1016.39
2019-02-03T12:16:37.590Z,1016.44
2019-02-03T12:17:37.606Z,1016.46
2019-02-03T12:18:37.371Z,1016.48
2019-02-03T12:19:37.608Z,1016.50
2019-02-03T12:20:37.316Z,1016.45
2019-02-03T12:21:37.631Z,1016.47
2019-02-03T12:22:37.346Z,1016.47
2019-02-03T12:23:37.355Z,1016.48
2019-02-03T12:24:37.694Z,1016.47
2019-02-03T12:25:37.505Z,1016.50
2019-02-03T12:26:37.549Z,1016.47
2019-02-03T12:27:37.648Z,1016.50
2019-02-03T12:28:38.117Z,1016.48
2019-02-03T12:29:37.739Z,1016.49
2019-02-03T12:31:37.875Z,1016.49
2019-02-03T12:33:37.663Z,1016.48
2019-02-03T12:35:38.208Z,1016.58
2019-02-03T12:36:39.869Z,1016.49
2019-02-03T12:37:37.831Z,1016.51
2019-02-03T12:38:37.961Z,1016.49
2019-02-03T12:39:37.928Z,1016.46
2019-02-03T12:40:37.926Z,1016.48
2019-02-03T12:41:38.015Z,1016.46
2019-02-03T12:42:38.193Z,1016.48
2019-02-03T12:43:37.967Z,1016.48
2019-02-03T12:44:38.025Z,1016.50
2019-02-03T12:45:38.130Z,1016.53
2019-02-03T12:46:38.885Z,1016.52
2019-02-03T12:47:38.057Z,1016.55
2019-02-03T12:49:38.501Z,1016.56
2019-02-03T12:50:38.283Z,1016.58
2019-02-03T12:51:40.129Z,1016.59
2019-02-03T12:52:38.734Z,1016.61
2019-02-03T12:53:38.280Z,1016.66
2019-02-03T12:54:38.299Z,1016.67
2019-02-03T12:55:38.442Z,1016.64
2019-02-03T12:56:39.915Z,1016.63
2019-02-03T12:58:38.426Z,1016.69
2019-02-03T12:59:38.595Z,1016.66
2019-02-03T13:00:38.491Z,1016.69
2019-02-03T13:01:38.511Z,1016.70
2019-02-03T13:02:38.498Z,1016.67
2019-02-03T13:03:38.886Z,1016.72
2019-02-03T13:04:38.624Z,1016.70
2019-02-03T13:05:38.654Z,1016.72
2019-02-03T13:06:38.699Z,1016.69
2019-02-03T13:07:38.720Z,1016.71
2019-02-03T13:08:40.329Z,1016.74
2019-02-03T13:09:38.766Z,1016.70
2019-02-03T13:10:39.102Z,1016.76